Time;durP1;ratioP1;P1;durP2;ratioP2;P2;SDS_P1;SDS_P2;PMS_P1;PMS_P2;Temp;Humidity;BMP_temperature;BMP_pressure;BME280_temperature;BME280_humidity;BME280_pressure;Samples;Min_cycle;Max_cycle;Signal;HPM_P1;HPM_P2
2021/01/31 00:00:31;;;;;;;27.58;12.65;;;;;;;-5.07;85.98;100260.38;5033128;28;20045;-71
2021/01/31 00:02:58;;;;;;;25.60;11.18;;;;;;;-5.04;85.92;100261.97;5032184;28;20375;-71
2021/01/31 00:05:24;;;;;;;29.42;13.68;;;;;;;-5.04;85.98;100265.41;5032244;28;20041;-71
2021/01/31 00:07:50;;;;;;;;;;;;;;;-5.04;86.12;100262.81;5032362;28;20447;-71
2021/01/31 00:10:24;;;;;;;29.85;12.27;;;;;;;-5.12;86.03;100259.75;5032184;28;19917;-71
2021/01/31 00:12:50;;;;;;;30.58;13.05;;;;;;;-5.16;86.28;100251.22;5033055;28;20219;-71
2021/01/31 00:15:18;;;;;;;28.30;13.43;;;;;;;-5.15;86.22;100255.53;5015490;28;20040;-71
2021/01/31 00:17:44;;;;;;;29.60;13.02;;;;;;;-5.15;86.17;100257.28;5032839;28;20131;-71
2021/01/31 00:20:11;;;;;;;33.65;15.27;;;;;;;-5.16;86.33;100261.66;5031818;28;20471;-71
2021/01/31 00:22:37;;;;;;;33.30;14.45;;;;;;;-5.13;86.14;100255.44;5031876;28;20033;-71
2021/01/31 00:25:04;;;;;;;28.90;13.98;;;;;;;-5.16;86.06;100255.59;5032029;28;20378;-71
2021/01/31 00:27:29;;;;;;;32.75;14.73;;;;;;;-5.18;85.94;100250.47;5031249;28;20038;-71
2021/01/31 00:29:54;;;;;;;31.20;12.95;;;;;;;-5.18;86.09;100247.84;5031718;28;20094;-71
2021/01/31 00:32:25;;;;;;;28.27;13.35;;;;;;;-5.18;86.02;100245.25;5032636;28;20049;-71
2021/01/31 00:34:55;;;;;;;34.95;14.52;;;;;;;-5.20;86.17;100247.09;5032416;28;20041;-71
2021/01/31 00:37:21;;;;;;;32.80;15.13;;;;;;;-5.16;86.01;100248.63;5031318;28;20720;-71
2021/01/31 00:39:48;;;;;;;31.23;13.10;;;;;;;-5.20;85.64;100257.50;5031565;28;20470;-71
2021/01/31 00:42:16;;;;;;;30.10;13.52;;;;;;;-5.23;85.58;100257.66;5014942;28;20061;-71
2021/01/31 00:44:48;;;;;;;29.10;13.90;;;;;;;-5.24;85.80;100270.75;5031426;28;20048;-71
2021/01/31 00:47:14;;;;;;;31.35;15.05;;;;;;;-5.28;85.99;100259.66;5032164;28;20123;-71
2021/01/31 00:49:40;;;;;;;;;;;;;;;-5.23;85.96;100260.25;5032780;28;20041;-71
2021/01/31 00:52:05;;;;;;;28.05;14.65;;;;;;;-5.19;85.63;100247.97;5032169;28;19928;-71
2021/01/31 00:54:32;;;;;;;29.95;13.48;;;;;;;-5.17;86.12;100246.97;5031356;28;20033;-71
2021/01/31 00:56:57;;;;;;;26.65;13.60;;;;;;;-5.21;85.89;100255.81;5030908;28;20029;-71
2021/01/31 00:59:23;;;;;;;24.75;12.95;;;;;;;-5.22;85.87;100248.94;5014897;28;20100;-71
2021/01/31 01:01:49;;;;;;;29.88;13.85;;;;;;;-5.24;85.74;100255.97;5031061;28;20040;-71
2021/01/31 01:04:15;;;;;;;26.70;13.32;;;;;;;-5.25;85.72;100249.06;5014660;28;20041;-71
2021/01/31 01:06:56;;;;;;;30.70;14.18;;;;;;;-5.27;85.81;100240.50;5030681;28;20037;-71
2021/01/31 01:09:22;;;;;;;34.95;14.13;;;;;;;-5.21;85.75;100248.03;5030952;28;20045;-71
2021/01/31 01:11:47;;;;;;;28.25;12.63;;;;;;;-5.23;85.65;100247.25;5030805;28;20052;-71
2021/01/31 01:14:12;;;;;;;27.13;13.52;;;;;;;-5.18;85.60;100245.25;5031968;28;20041;-71
2021/01/31 01:16:38;;;;;;;24.42;12.63;;;;;;;-5.16;85.51;100243.44;5030456;28;20048;-71
2021/01/31 01:19:04;;;;;;;26.00;12.68;;;;;;;-5.14;85.39;100240.75;5031002;28;20042;-71
2021/01/31 01:21:31;;;;;;;26.52;12.82;;;;;;;-5.16;85.66;100238.22;5031823;28;20063;-71
2021/01/31 01:23:57;;;;;;;25.70;12.15;;;;;;;-5.19;85.41;100237.53;5030838;28;20030;-71
2021/01/31 01:26:27;;;;;;;25.52;12.32;;;;;;;-5.21;85.21;100234.16;5031453;28;20041;-71
2021/01/31 01:28:52;;;;;;;30.57;14.13;;;;;;;-5.23;85.33;100236.00;5031517;28;20026;-71
2021/01/31 01:31:17;;;;;;;26.38;12.65;;;;;;;-5.23;85.14;100226.44;5030618;28;20646;-71
2021/01/31 01:33:43;;;;;;;24.70;12.82;;;;;;;-5.16;84.61;100226.97;5030505;28;20045;-71
2021/01/31 01:36:08;;;;;;;24.17;11.38;;;;;;;-5.18;84.79;100231.41;5030043;28;20049;-71
2021/01/31 01:38:33;;;;;;;23.10;10.88;;;;;;;-5.16;84.96;100232.19;5030373;28;20030;-71
2021/01/31 01:40:59;;;;;;;23.67;11.95;;;;;;;-5.18;84.67;100234.84;5031403;28;20363;-71
2021/01/31 01:43:25;;;;;;;24.77;12.27;;;;;;;-5.18;84.70;100228.81;5014055;28;20699;-71
2021/01/31 01:46:18;;;;;;;26.00;13.48;;;;;;;-5.24;84.46;100227.34;5031137;28;20622;-71
2021/01/31 01:48:49;;;;;;;24.05;11.82;;;;;;;-5.27;84.61;100226.66;5030433;28;20174;-71
2021/01/31 01:51:17;;;;;;;23.75;12.40;;;;;;;-5.26;84.75;100220.53;5030359;28;20033;-71
2021/01/31 01:53:44;;;;;;;27.73;14.35;;;;;;;-5.28;84.78;100223.22;5030316;28;20029;-71
2021/01/31 01:56:19;;;;;;;28.15;13.75;;;;;;;-5.33;84.84;100214.78;5030955;28;20513;-71
2021/01/31 01:58:45;;;;;;;29.10;14.27;;;;;;;-5.30;84.83;100225.03;5031339;28;20037;-71
2021/01/31 02:01:11;;;;;;;29.48;14.80;;;;;;;-5.28;84.79;100224.97;5030142;28;20042;-71
2021/01/31 02:03:40;;;;;;;35.88;16.67;;;;;;;-5.30;84.71;100230.25;5030263;28;20041;-71
2021/01/31 02:06:27;;;;;;;32.58;13.85;;;;;;;-5.31;84.83;100223.38;5030971;28;20503;-71
2021/01/31 02:08:55;;;;;;;25.52;14.02;;;;;;;-5.32;85.11;100232.91;5030994;28;20470;-70
2021/01/31 02:11:22;;;;;;;28.73;14.98;;;;;;;-5.29;85.16;100224.13;5013757;28;20056;-71
2021/01/31 02:13:54;;;;;;;30.83;14.15;;;;;;;-5.31;84.99;100224.22;5030028;28;20037;-71
2021/01/31 02:16:24;;;;;;;27.10;13.65;;;;;;;-5.31;85.06;100219.00;5029874;28;20030;-71
2021/01/31 02:19:02;;;;;;;27.90;13.45;;;;;;;-5.24;84.88;100216.09;5030998;28;20108;-71
2021/01/31 02:21:50;;;;;;;29.00;14.30;;;;;;;-5.26;84.78;100220.53;5031113;28;20443;-71
2021/01/31 02:24:27;;;;;;;31.48;14.25;;;;;;;-5.30;84.55;100212.03;5030041;28;20084;-71
2021/01/31 02:27:30;;;;;;;28.33;12.65;;;;;;;-5.19;84.75;100217.56;5030755;28;20042;-71
2021/01/31 02:30:20;;;;;;;23.92;12.52;;;;;;;-5.26;84.58;100226.59;5031012;28;20041;-71
2021/01/31 02:33:28;;;;;;;27.58;13.18;;;;;;;-5.24;84.82;100235.16;5030892;28;20459;-71
2021/01/31 02:36:03;;;;;;;27.50;13.85;;;;;;;-5.16;84.89;100233.00;5029931;28;20711;-71
2021/01/31 02:38:43;;;;;;;30.17;14.07;;;;;;;-5.12;85.08;100225.91;5013446;28;20075;-71
2021/01/31 02:41:16;;;;;;;28.17;13.25;;;;;;;-5.09;84.85;100225.75;5030934;28;20048;-71
2021/01/31 02:43:47;;;;;;;29.27;14.75;;;;;;;-5.02;84.34;100215.88;5030827;28;20044;-71
2021/01/31 02:46:31;;;;;;;28.70;14.05;;;;;;;-5.00;84.05;100211.44;5030389;28;20041;-71
2021/01/31 02:49:04;;;;;;;27.17;12.95;;;;;;;-5.06;84.26;100202.16;5030778;28;20127;-71
2021/01/31 02:52:01;;;;;;;30.05;12.40;;;;;;;-5.04;84.24;100205.53;5034695;28;20057;-71
2021/01/31 02:54:40;;;;;;;27.42;14.02;;;;;;;-5.06;84.11;100201.31;5033528;28;20038;-71
2021/01/31 02:57:12;;;;;;;31.25;14.52;;;;;;;-5.08;84.32;100201.41;5034247;28;20367;-71
2021/01/31 02:59:49;;;;;;;30.80;13.68;;;;;;;-5.06;84.42;100202.16;5034406;28;20120;-71
2021/01/31 03:02:21;;;;;;;29.08;14.07;;;;;;;-5.05;84.74;100192.63;5034455;28;20370;-71
2021/01/31 03:05:16;;;;;;;28.25;14.27;;;;;;;-4.97;84.79;100191.28;5034272;28;20045;-71
2021/01/31 03:07:48;;;;;;;33.72;16.08;;;;;;;-4.91;85.03;100179.75;5034098;28;20463;-71
2021/01/31 03:10:20;;;;;;;29.85;14.48;;;;;;;-4.88;85.01;100176.97;5034079;28;20052;-71
2021/01/31 03:13:03;;;;;;;35.58;16.42;;;;;;;-4.85;84.82;100158.56;5033280;28;20053;-71
2021/01/31 03:15:34;;;;;;;31.85;14.25;;;;;;;-4.80;84.29;100153.13;5033999;28;20045;-71
2021/01/31 03:18:07;;;;;;;28.60;13.05;;;;;;;-4.79;84.34;100153.06;5033042;28;20029;-72
2021/01/31 03:20:38;;;;;;;32.05;14.82;;;;;;;-4.77;84.28;100171.22;5034162;28;20033;-66
2021/01/31 03:23:16;;;;;;;29.15;14.35;;;;;;;-4.77;84.21;100166.84;5033025;28;20037;-66
2021/01/31 03:25:48;;;;;;;33.97;16.20;;;;;;;-4.79;84.21;100160.88;5033669;28;20130;-66
2021/01/31 03:28:13;;;;;;;31.88;14.52;;;;;;;-4.83;84.26;100163.72;5033820;28;20041;-66
2021/01/31 03:30:40;;;;;;;35.15;16.38;;;;;;;-4.84;84.15;100170.69;5032888;28;20041;-65
2021/01/31 03:33:20;;;;;;;32.40;14.73;;;;;;;-4.80;84.32;100172.22;5032874;28;20045;-66
2021/01/31 03:35:49;;;;;;;35.13;16.60;;;;;;;-4.81;84.16;100169.69;5032619;28;20356;-66
2021/01/31 03:38:28;;;;;;;30.92;15.55;;;;;;;-4.81;84.10;100170.53;5033488;28;20044;-66
2021/01/31 03:40:58;;;;;;;31.38;14.35;;;;;;;-4.79;84.09;100173.91;5033688;28;20034;-66
2021/01/31 03:43:23;;;;;;;33.55;16.55;;;;;;;-4.78;83.88;100179.94;5032635;28;20037;-65
2021/01/31 03:46:37;;;;;;;37.17;16.15;;;;;;;-4.77;83.84;100177.28;5015891;28;20411;-66
2021/01/31 03:49:49;;;;;;;39.05;17.98;;;;;;;-4.68;84.84;100174.19;5023238;28;20079;-66
2021/01/31 03:52:14;;;;;;;43.40;20.15;;;;;;;-4.53;85.51;100174.31;5020971;28;20096;-66
2021/01/31 03:54:40;;;;;;;46.38;20.52;;;;;;;-4.46;85.66;100175.66;5032486;28;20077;-66
2021/01/31 03:57:11;;;;;;;43.88;18.52;;;;;;;-4.39;85.66;100177.03;5032964;28;20490;-66
2021/01/31 03:59:46;;;;;;;42.08;18.05;;;;;;;-4.32;85.38;100173.16;5032187;28;20048;-66
2021/01/31 04:02:13;;;;;;;40.08;18.92;;;;;;;-4.32;85.05;100180.16;5033312;28;20427;-66
2021/01/31 04:04:46;;;;;;;37.13;17.77;;;;;;;-4.47;84.36;100174.00;5033228;28;20033;-66
2021/01/31 04:07:15;;;;;;;32.60;15.90;;;;;;;-4.50;84.34;100168.94;5032803;28;20033;-66
2021/01/31 04:09:42;;;;;;;34.80;17.05;;;;;;;-4.50;84.48;100174.13;5032832;28;20386;-66
2021/01/31 04:12:11;;;;;;;38.97;16.92;;;;;;;-4.50;84.39;100179.34;5015374;28;20422;-66
2021/01/31 04:14:56;;;;;;;36.75;16.35;;;;;;;-4.48;84.42;100174.91;5032916;28;20466;-66
2021/01/31 04:17:22;;;;;;;33.80;16.00;;;;;;;-4.45;84.36;100174.72;5032715;28;20502;-66
2021/01/31 04:19:48;;;;;;;30.38;14.93;;;;;;;-4.44;84.15;100176.44;5031938;28;20037;-66
2021/01/31 04:22:13;;;;;;;33.83;14.30;;;;;;;-4.43;83.76;100169.44;5031936;28;20527;-66
2021/01/31 04:24:39;;;;;;;29.90;14.50;;;;;;;-4.42;84.10;100176.38;5032898;28;20041;-66
2021/01/31 04:27:04;;;;;;;29.85;13.70;;;;;;;-4.37;83.98;100180.41;5031565;28;20056;-66
2021/01/31 04:29:31;;;;;;;30.85;14.90;;;;;;;-4.39;83.59;100171.81;5032786;28;20041;-66
2021/01/31 04:31:57;;;;;;;29.60;13.15;;;;;;;-4.32;83.33;100165.34;5032644;28;20045;-66
2021/01/31 04:34:22;;;;;;;33.00;14.88;;;;;;;-4.35;83.77;100162.09;5032554;28;20044;-66
2021/01/31 04:36:47;;;;;;;35.95;14.63;;;;;;;-4.31;84.04;100167.06;5032300;28;20064;-66
2021/01/31 04:39:13;;;;;;;40.00;15.50;;;;;;;-4.24;83.82;100164.94;5031856;28;20037;-66
2021/01/31 04:41:41;;;;;;;38.47;16.23;;;;;;;-4.19;83.91;100172.50;5031392;28;20091;-66
2021/01/31 04:44:11;;;;;;;35.40;16.00;;;;;;;-4.19;84.02;100170.75;5032366;28;20030;-66
2021/01/31 04:46:47;;;;;;;29.90;14.65;;;;;;;-4.15;84.05;100169.66;5031086;28;20104;-66
2021/01/31 04:49:26;;;;;;;35.25;16.20;;;;;;;-4.19;84.20;100169.91;5032248;28;20068;-66
2021/01/31 04:52:13;;;;;;;32.33;14.65;;;;;;;-4.16;84.07;100161.94;5014823;28;20044;-66
2021/01/31 04:54:54;;;;;;;32.15;16.08;;;;;;;-4.11;84.11;100165.13;5031390;28;20037;-66
2021/01/31 04:57:34;;;;;;;29.85;13.50;;;;;;;-4.06;84.18;100165.72;5030946;28;20130;-66
2021/01/31 05:00:01;;;;;;;34.70;15.90;;;;;;;-4.08;84.11;100165.78;5031299;28;20037;-66
2021/01/31 05:02:47;;;;;;;39.22;16.55;;;;;;;-4.10;84.30;100161.59;5032144;28;20222;-66
2021/01/31 05:05:24;;;;;;;39.65;16.60;;;;;;;-4.16;84.56;100165.38;5031118;28;20056;-66
2021/01/31 05:07:56;;;;;;;35.20;15.98;;;;;;;-4.09;84.28;100163.28;5031770;28;20044;-66
2021/01/31 05:10:22;;;;;;;34.28;16.80;;;;;;;-4.11;84.39;100167.72;5031865;28;20029;-72
2021/01/31 05:13:05;;;;;;;41.25;16.42;;;;;;;-4.23;84.72;100155.38;5031249;28;20048;-72
2021/01/31 05:15:41;;;;;;;35.25;16.23;;;;;;;-4.17;84.85;100168.06;5030803;28;20041;-72
2021/01/31 05:18:08;;;;;;;40.65;16.08;;;;;;;-4.17;84.74;100163.69;5031717;28;20044;-72
2021/01/31 05:20:36;;;;;;;37.20;17.25;;;;;;;-4.14;84.72;100166.13;5014252;28;20037;-72
2021/01/31 05:23:03;;;;;;;32.83;16.75;;;;;;;-4.12;84.75;100166.91;5031808;28;20116;-72
2021/01/31 05:25:32;;;;;;;38.95;18.38;;;;;;;-4.13;84.65;100172.19;5031561;28;20129;-72
2021/01/31 05:27:59;;;;;;;40.50;17.70;;;;;;;-4.14;84.71;100171.34;5031462;28;20112;-72
2021/01/31 05:30:28;;;;;;;39.85;16.65;;;;;;;-4.15;84.82;100174.03;5030732;28;20052;-72
2021/01/31 05:33:08;;;;;;;35.17;17.33;;;;;;;-4.16;84.99;100172.38;5031395;28;20061;-72
2021/01/31 05:35:46;;;;;;;37.08;15.35;;;;;;;-4.12;84.63;100174.72;5031298;28;20037;-72
2021/01/31 05:38:13;;;;;;;37.13;17.25;;;;;;;-4.14;84.86;100167.91;5014076;28;20120;-72
2021/01/31 05:40:42;;;;;;;37.83;18.52;;;;;;;-4.11;84.89;100168.56;5030546;28;20379;-72
2021/01/31 05:43:14;;;;;;;33.97;15.73;;;;;;;-4.11;84.58;100173.78;5031307;28;20466;-71
2021/01/31 05:45:44;;;;;;;36.50;17.73;;;;;;;-4.11;84.36;100172.94;5031291;28;20184;-72
2021/01/31 05:48:23;;;;;;;29.70;14.65;;;;;;;-4.13;83.92;100165.19;5030178;28;20647;-72
2021/01/31 05:50:51;;;;;;;35.10;16.35;;;;;;;-4.19;83.89;100172.50;5031330;28;20033;-72
2021/01/31 05:53:26;;;;;;;30.83;15.25;;;;;;;-4.19;83.59;100172.50;5031171;28;20065;-72
2021/01/31 05:55:52;;;;;;;33.88;14.68;;;;;;;-4.19;83.52;100172.50;5031073;28;20061;-72
2021/01/31 05:58:23;;;;;;;32.88;14.45;;;;;;;-4.11;82.96;100178.16;5013734;28;20518;-72
2021/01/31 06:01:05;;;;;;;29.55;14.57;;;;;;;-4.07;82.41;100174.47;5031164;28;20033;-72
2021/01/31 06:03:30;;;;;;;28.55;12.10;;;;;;;-4.06;82.21;100176.16;5031103;28;20029;-72
2021/01/31 06:06:23;;;;;;;33.10;14.33;;;;;;;-4.00;82.30;100168.00;5013682;28;20079;-72
2021/01/31 06:08:51;;;;;;;29.27;13.75;;;;;;;-3.96;82.53;100173.88;5030116;28;20722;-72
2021/01/31 06:11:24;;;;;;;26.35;12.75;;;;;;;-3.95;82.25;100170.34;5031171;28;20375;-72
2021/01/31 06:14:05;;;;;;;28.52;11.90;;;;;;;-3.92;81.95;100178.84;5030142;28;20044;-72
2021/01/31 06:16:33;;;;;;;26.13;12.77;;;;;;;-3.92;81.50;100178.00;5030768;28;20045;-72
2021/01/31 06:19:21;;;;;;;28.88;13.77;;;;;;;-3.88;81.50;100169.94;5030005;28;20188;-72
2021/01/31 06:21:46;;;;;;;22.58;10.68;;;;;;;-3.87;81.42;100176.81;5031134;28;20033;-72
2021/01/31 06:24:19;;;;;;;29.77;11.85;;;;;;;-3.82;81.03;100167.00;5034157;28;20033;-72
2021/01/31 06:26:44;;;;;;;28.10;11.02;;;;;;;-3.76;80.83;100180.63;5034735;28;20056;-72
2021/01/31 06:29:17;;;;;;;25.97;11.23;;;;;;;-3.76;80.90;100175.41;5034825;28;20037;-72
2021/01/31 06:31:46;;;;;;;22.92;11.20;;;;;;;-3.75;80.64;100172.69;5033983;28;20276;-72
2021/01/31 06:34:12;;;;;;;21.10;10.93;;;;;;;-3.71;80.82;100166.38;5034799;28;20363;-72
2021/01/31 06:36:52;;;;;;;23.52;10.88;;;;;;;-3.68;80.64;100165.34;5033637;28;20044;-72
2021/01/31 06:39:45;;;;;;;22.15;10.57;;;;;;;-3.66;80.17;100172.16;5034687;28;20037;-71
2021/01/31 06:42:48;;;;;;;24.20;9.90;;;;;;;-3.63;80.36;100161.59;5032426;28;20045;-72
2021/01/31 06:45:29;;;;;;;23.65;10.70;;;;;;;-3.68;80.30;100174.03;5034693;28;20048;-72
2021/01/31 06:48:05;;;;;;;21.10;9.70;;;;;;;-3.68;80.66;100167.97;5033342;28;20033;-72
2021/01/31 06:50:55;;;;;;;21.45;10.75;;;;;;;-3.73;80.88;100175.22;5034548;28;20041;-71
2021/01/31 06:53:58;;;;;;;22.38;9.80;;;;;;;-3.78;80.71;100172.03;5033477;28;20045;-72
2021/01/31 06:56:49;;;;;;;21.27;11.02;;;;;;;-3.84;80.56;100179.28;5034139;28;20116;-71
2021/01/31 06:59:39;;;;;;;20.85;9.88;;;;;;;-3.78;80.41;100177.25;5016889;28;20140;-72
2021/01/31 07:02:37;;;;;;;20.23;9.25;;;;;;;-3.76;80.31;100167.56;5033387;28;20619;-72
2021/01/31 07:05:16;;;;;;;19.15;9.63;;;;;;;-3.74;80.18;100171.78;5034110;28;20040;-72
2021/01/31 07:08:05;;;;;;;22.15;10.48;;;;;;;-3.65;80.49;100183.47;5033101;28;20033;-72
2021/01/31 07:10:51;;;;;;;21.23;10.52;;;;;;;-3.68;80.70;100183.63;5022638;28;20140;-71
2021/01/31 07:13:23;;;;;;;24.55;10.18;;;;;;;-3.55;79.97;100183.78;5033057;28;20417;-72
2021/01/31 07:16:07;;;;;;;20.73;9.50;;;;;;;-3.59;80.09;100187.50;5032920;28;20447;-72
2021/01/31 07:18:39;;;;;;;22.92;10.65;;;;;;;-3.62;79.90;100180.69;5033999;28;20029;-72
2021/01/31 07:21:15;;;;;;;20.67;9.63;;;;;;;-3.56;80.21;100193.38;5032916;28;20841;-71
2021/01/31 07:23:45;;;;;;;19.13;9.75;;;;;;;-3.59;80.24;100204.00;5033912;28;20041;-72
2021/01/31 07:26:35;;;;;;;25.20;11.48;;;;;;;-3.45;80.58;100198.84;5033667;28;20069;-71
2021/01/31 07:29:05;;;;;;;40.80;11.65;;;;;;;-2.96;81.21;100203.00;5032797;28;20352;-71
2021/01/31 07:31:50;;;;;;;21.80;10.23;;;;;;;-3.29;79.07;100198.81;5033570;28;20103;-71
2021/01/31 07:34:25;;;;;;;21.67;10.83;;;;;;;-3.44;79.93;100191.88;5033099;28;20136;-72
2021/01/31 07:37:15;;;;;;;22.55;11.32;;;;;;;-3.26;81.09;100184.75;5033381;28;20410;-72
2021/01/31 07:39:52;;;;;;;23.30;11.75;;;;;;;-3.44;80.12;100192.69;5032523;28;20053;-71
2021/01/31 07:42:20;;;;;;;25.50;12.23;;;;;;;-3.45;80.25;100191.00;5032631;28;20037;-72
2021/01/31 07:44:47;;;;;;;22.52;11.73;;;;;;;-3.48;79.98;100204.22;5033284;28;20033;-72
2021/01/31 07:47:12;;;;;;;20.45;11.65;;;;;;;-3.54;79.89;100209.78;5033168;28;20435;-72
2021/01/31 07:49:59;;;;;;;21.80;9.95;;;;;;;-3.56;79.87;100203.81;5015950;28;20095;-72
2021/01/31 07:52:29;;;;;;;21.58;9.65;;;;;;;-3.58;79.76;100205.69;5032170;28;20041;-72
2021/01/31 07:55:31;;;;;;;24.77;10.98;;;;;;;-3.65;80.19;100199.13;5015816;28;20041;-72
2021/01/31 07:58:12;;;;;;;25.60;10.98;;;;;;;-3.77;80.18;100203.25;5032148;28;20045;-72
2021/01/31 08:00:44;;;;;;;23.23;10.93;;;;;;;-3.66;80.12;100207.88;5032062;28;20060;-72
2021/01/31 08:03:35;;;;;;;24.13;10.95;;;;;;;-3.65;79.86;100207.78;5033225;28;20038;-72
2021/01/31 08:06:10;;;;;;;22.60;10.93;;;;;;;-3.64;79.83;100206.00;5032016;28;20052;-72
2021/01/31 08:08:43;;;;;;;22.95;10.27;;;;;;;-3.72;79.98;100211.66;5032944;28;20056;-72
2021/01/31 08:11:11;;;;;;;23.23;11.13;;;;;;;-3.77;80.25;100205.88;5031969;28;20037;-72
2021/01/31 08:13:40;;;;;;;24.52;10.30;;;;;;;-3.79;80.26;100205.09;5032505;28;20438;-72
2021/01/31 08:16:42;;;;;;;23.75;10.48;;;;;;;-3.43;79.72;100206.59;5031981;28;20095;-72
2021/01/31 08:19:07;;;;;;;22.98;11.07;;;;;;;-3.18;78.63;100198.22;5032945;28;20120;-72
2021/01/31 08:21:52;;;;;;;23.97;10.87;;;;;;;-3.07;77.97;100214.06;5032090;28;20112;-72
2021/01/31 08:24:55;;;;;;;21.55;10.65;;;;;;;-2.39;75.89;100213.56;5031699;28;20382;-72
2021/01/31 08:27:42;;;;;;;19.13;9.57;;;;;;;-1.82;73.88;100217.91;5031549;28;20378;-72
2021/01/31 08:30:27;;;;;;;20.98;9.75;;;;;;;-1.83;73.41;100213.59;5031528;28;20116;-72
2021/01/31 08:32:59;;;;;;;23.60;10.95;;;;;;;-2.06;73.98;100208.97;5032539;28;20033;-72
2021/01/31 08:35:44;;;;;;;23.08;10.95;;;;;;;-2.29;74.80;100219.06;5032438;28;20120;-72
2021/01/31 08:38:15;;;;;;;20.63;10.05;;;;;;;-1.60;73.44;100219.16;5014428;28;20643;-72
2021/01/31 08:41:04;;;;;;;22.65;10.57;;;;;;;-1.81;72.85;100209.13;5032339;28;20033;-72
2021/01/31 08:43:41;;;;;;;21.25;10.80;;;;;;;-2.04;74.22;100207.09;5031356;28;20026;-72
2021/01/31 08:46:13;;;;;;;22.17;10.00;;;;;;;-2.17;74.82;100218.31;5031326;28;20477;-72
2021/01/31 08:48:39;;;;;;;20.88;10.50;;;;;;;-2.33;76.35;100222.81;5031158;28;20041;-72
2021/01/31 08:51:15;;;;;;;26.35;11.80;;;;;;;-2.38;77.01;100222.25;5032232;28;20034;-72
2021/01/31 08:53:41;;;;;;;22.90;11.60;;;;;;;-2.44;77.49;100218.22;5030856;28;20232;-72
2021/01/31 08:56:21;;;;;;;23.13;10.65;;;;;;;-2.53;78.07;100215.31;5032016;28;20080;-72
2021/01/31 08:58:46;;;;;;;24.33;11.48;;;;;;;-2.81;79.74;100206.50;5032089;28;20037;-71
2021/01/31 09:01:12;;;;;;;27.40;13.33;;;;;;;-2.88;80.71;100215.63;5030967;28;20048;-71
2021/01/31 09:03:41;;;;;;;34.23;14.13;;;;;;;-2.80;80.94;100213.41;5014580;28;20638;-72
2021/01/31 09:06:06;;;;;;;24.73;13.50;;;;;;;-2.79;81.54;100212.47;5030770;28;20280;-72
2021/01/31 09:08:40;;;;;;;36.10;14.07;;;;;;;-2.82;82.25;100204.81;5108897;27;20869;-72
2021/01/31 09:11:07;;;;;;;32.47;14.38;;;;;;;-2.74;82.40;100202.59;5109034;28;20059;-72
2021/01/31 09:13:34;;;;;;;30.60;12.77;;;;;;;-2.61;81.79;100208.78;5108693;28;20039;-72
2021/01/31 09:16:29;;;;;;;29.58;14.02;;;;;;;-2.88;81.92;100206.03;5107766;28;20038;-72
2021/01/31 09:19:16;;;;;;;29.17;11.93;;;;;;;-1.37;78.44;100204.59;5090527;28;20040;-72
2021/01/31 09:21:43;;;;;;;24.73;11.63;;;;;;;-0.36;73.79;100202.25;5108425;28;20414;-73
2021/01/31 09:24:13;;;;;;;22.67;11.43;;;;;;;0.90;68.78;100198.50;5107551;28;20106;-73
2021/01/31 09:26:39;;;;;;;20.15;11.23;;;;;;;0.36;68.94;100197.19;5107308;28;20065;-73
2021/01/31 09:29:11;;;;;;;18.33;9.23;;;;;;;1.50;66.38;100194.84;5108536;28;20039;-73
2021/01/31 09:31:41;;;;;;;19.63;10.48;;;;;;;1.27;64.83;100194.78;5108647;28;20047;-73
2021/01/31 09:34:07;;;;;;;21.95;9.65;;;;;;;1.64;63.37;100191.16;5090398;28;20028;-72
2021/01/31 09:36:36;;;;;;;19.42;8.88;;;;;;;1.43;64.89;100198.91;5106995;28;20464;-71
2021/01/31 09:39:06;;;;;;;17.30;10.20;;;;;;;1.81;63.93;100209.09;5090444;28;20112;-71
2021/01/31 09:41:33;;;;;;;17.40;9.13;;;;;;;1.72;63.44;100208.97;5108405;28;20038;-72
2021/01/31 09:44:04;;;;;;;18.55;9.80;;;;;;;2.09;61.82;100205.13;5108289;28;20073;-72
2021/01/31 09:46:30;;;;;;;16.92;9.18;;;;;;;1.71;62.94;100217.81;5108050;28;20067;-71
2021/01/31 09:49:06;;;;;;;20.95;10.80;;;;;;;0.94;65.43;100227.09;5108190;28;20510;-72
2021/01/31 09:51:33;;;;;;;22.70;11.10;;;;;;;-0.14;68.04;100218.19;5107243;28;20042;-71
2021/01/31 09:54:20;;;;;;;18.23;9.70;;;;;;;-0.73;70.30;100223.09;5090206;28;20096;-72
2021/01/31 09:56:59;;;;;;;25.08;9.90;;;;;;;-0.94;71.95;100228.81;5107885;28;20059;-72
2021/01/31 09:59:29;;;;;;;20.02;10.70;;;;;;;-1.18;72.50;100218.19;5106798;28;20124;-72
2021/01/31 10:02:16;;;;;;;24.25;12.13;;;;;;;-1.22;73.41;100226.34;5108087;28;20039;-72
2021/01/31 10:04:43;;;;;;;23.10;12.48;;;;;;;-1.28;73.19;100228.41;5107929;28;20402;-72
2021/01/31 10:07:15;;;;;;;22.58;10.55;;;;;;;-1.27;74.12;100229.25;5122590;28;20032;-72
2021/01/31 10:09:42;;;;;;;21.17;11.38;;;;;;;-1.20;74.01;100217.44;5105816;28;20044;-72
2021/01/31 10:12:34;;;;;;;22.25;10.35;;;;;;;-0.97;73.11;100221.16;5104961;28;20043;-72
2021/01/31 10:15:05;;;;;;;24.15;12.40;;;;;;;-1.10;74.02;100220.28;5101356;28;20055;-72
2021/01/31 10:17:30;;;;;;;18.67;9.80;;;;;;;-1.08;73.24;100218.41;5105914;28;20028;-72
2021/01/31 10:20:34;;;;;;;22.30;11.13;;;;;;;-1.03;73.03;100213.72;5092955;28;20657;-72
2021/01/31 10:23:02;;;;;;;22.30;9.98;;;;;;;-0.91;73.50;100226.00;5092481;28;20079;-72
2021/01/31 10:25:28;;;;;;;20.58;10.35;;;;;;;-1.28;74.21;100232.81;5093707;28;20055;-72
2021/01/31 10:27:57;;;;;;;25.55;11.32;;;;;;;-1.27;74.33;100224.00;5093763;28;20024;-72
2021/01/31 10:30:37;;;;;;;20.90;10.52;;;;;;;-1.15;73.58;100222.38;5093032;28;20077;-72
2021/01/31 10:33:04;;;;;;;22.10;12.10;;;;;;;-1.27;73.26;100226.63;5092947;28;20146;-72
2021/01/31 10:35:36;;;;;;;20.23;10.23;;;;;;;-1.31;74.71;100228.63;5092768;28;20119;-72
2021/01/31 10:38:25;;;;;;;21.23;10.65;;;;;;;-1.37;75.29;100234.25;5093667;28;20027;-72
2021/01/31 10:40:50;;;;;;;25.70;11.13;;;;;;;-1.37;74.61;100234.25;5093671;28;20043;-72
2021/01/31 10:43:18;;;;;;;20.60;9.33;;;;;;;-1.33;74.74;100235.75;5093396;28;20101;-72
2021/01/31 10:45:43;;;;;;;20.20;10.90;;;;;;;-1.21;74.64;100222.78;5092396;28;20400;-72
2021/01/31 10:48:09;;;;;;;26.00;9.93;;;;;;;-1.04;74.08;100229.53;5075716;28;20042;-72
2021/01/31 10:50:34;;;;;;;22.90;10.63;;;;;;;-0.98;74.45;100224.75;5093569;28;20036;-72
2021/01/31 10:53:00;;;;;;;19.10;10.03;;;;;;;-0.80;73.60;100227.91;5093568;28;20051;-72
2021/01/31 10:55:25;;;;;;;25.83;11.45;;;;;;;-0.53;71.92;100230.47;5092458;28;20055;-72
2021/01/31 10:57:50;;;;;;;23.13;10.35;;;;;;;-0.33;70.77;100223.00;5092054;28;20055;-72
2021/01/31 11:00:16;;;;;;;21.83;10.23;;;;;;;-0.28;69.67;100229.63;5093251;28;20385;-72
2021/01/31 11:02:41;;;;;;;19.02;10.25;;;;;;;0.06;69.60;100216.78;5093311;28;20099;-72
2021/01/31 11:05:07;;;;;;;16.67;9.00;;;;;;;0.13;68.65;100214.56;5092111;28;20416;-72
2021/01/31 11:07:33;;;;;;;22.27;10.02;;;;;;;0.13;68.34;100212.78;5092796;28;20430;-72
2021/01/31 11:09:59;;;;;;;18.63;9.95;;;;;;;0.40;67.84;100215.22;5093110;28;20051;-72
2021/01/31 11:12:24;;;;;;;20.50;9.90;;;;;;;1.15;66.03;100216.75;5091779;28;20104;-73
2021/01/31 11:14:50;;;;;;;16.17;8.90;;;;;;;1.76;63.58;100213.88;5093061;28;20139;-73
2021/01/31 11:17:15;;;;;;;17.00;9.20;;;;;;;2.02;63.03;100206.56;5092647;28;20043;-72
2021/01/31 11:19:40;;;;;;;20.47;9.53;;;;;;;2.17;62.59;100198.41;5093138;28;20044;-72
2021/01/31 11:22:06;;;;;;;17.53;8.60;;;;;;;2.07;62.08;100207.03;5092917;28;20043;-72
2021/01/31 11:24:31;;;;;;;17.63;10.57;;;;;;;1.92;62.39;100208.25;5075142;28;20043;-72
2021/01/31 11:26:56;;;;;;;16.90;8.93;;;;;;;2.27;61.62;100204.63;5092220;28;20064;-72
2021/01/31 11:29:22;;;;;;;21.23;9.70;;;;;;;1.73;63.21;100211.47;5091878;28;20051;-73
2021/01/31 11:31:47;;;;;;;17.13;9.30;;;;;;;2.12;61.57;100201.41;5074218;28;20036;-73
2021/01/31 11:34:12;;;;;;;17.53;8.90;;;;;;;1.88;63.60;100198.94;5092783;28;20035;-72
2021/01/31 11:36:38;;;;;;;16.27;9.13;;;;;;;2.01;61.84;100194.34;5092318;28;20119;-72
2021/01/31 11:39:07;;;;;;;17.30;9.23;;;;;;;2.36;60.77;100198.63;5092690;28;20127;-72